createdAt,value
2022-09-04T00:00:21.267Z,16.6
2022-09-04T00:05:25.755Z,16.6
2022-09-04T00:10:29.315Z,16.5
2022-09-04T00:15:33.862Z,16.3
2022-09-04T00:20:38.408Z,16.2
2022-09-04T00:25:41.929Z,16.1
2022-09-04T00:30:46.511Z,16
2022-09-04T00:35:51.012Z,16
2022-09-04T00:40:55.560Z,15.9
2022-09-04T00:45:59.112Z,15.9
2022-09-04T00:51:03.620Z,15.9
2022-09-04T00:56:08.159Z,15.8
2022-09-04T01:01:11.836Z,15.8
2022-09-04T01:06:16.205Z,15.8
2022-09-04T01:11:20.737Z,15.8
2022-09-04T01:16:24.382Z,15.8
2022-09-04T01:21:28.854Z,15.8
2022-09-04T01:26:33.365Z,15.8
2022-09-04T01:31:37.030Z,15.8
2022-09-04T01:36:41.462Z,15.8
2022-09-04T01:41:46.055Z,15.8
2022-09-04T01:46:50.510Z,15.8
2022-09-04T01:51:54.071Z,15.8
2022-09-04T01:56:58.596Z,15.8
2022-09-04T02:02:03.248Z,15.8
2022-09-04T02:07:06.680Z,15.8
2022-09-04T02:12:11.201Z,15.7
2022-09-04T02:17:15.740Z,15.7
2022-09-04T02:22:19.271Z,15.7
2022-09-04T02:27:23.855Z,15.6
2022-09-04T02:32:28.416Z,15.5
2022-09-04T02:37:31.911Z,15.4
2022-09-04T02:42:36.489Z,15.4
2022-09-04T02:47:40.961Z,15.3
2022-09-04T02:52:45.507Z,15.2
2022-09-04T02:57:49.109Z,15.2
2022-09-04T03:02:53.610Z,15.1
2022-09-04T03:07:58.145Z,15.1
2022-09-04T03:13:01.662Z,15
2022-09-04T03:18:06.235Z,14.9
2022-09-04T03:23:10.765Z,14.8
2022-09-04T03:28:14.289Z,14.8
2022-09-04T03:33:18.803Z,14.8
2022-09-04T03:38:22.411Z,14.8
2022-09-04T03:43:26.908Z,14.8
2022-09-04T03:48:31.434Z,14.8
2022-09-04T03:53:35.009Z,14.8
2022-09-04T03:58:39.523Z,14.8
2022-09-04T04:03:44.086Z,14.8
2022-09-04T04:08:47.614Z,14.8
2022-09-04T04:13:52.152Z,14.8
2022-09-04T04:18:56.709Z,14.7
2022-09-04T04:24:00.225Z,14.7
2022-09-04T04:29:04.784Z,14.7
2022-09-04T04:34:09.475Z,14.7
2022-09-04T04:39:13.846Z,14.7
2022-09-04T04:44:17.430Z,14.6
2022-09-04T04:49:21.946Z,14.6
2022-09-04T04:54:26.457Z,14.6
2022-09-04T04:59:29.996Z,14.6
2022-09-04T05:04:34.564Z,14.6
2022-09-04T05:09:39.085Z,14.6
2022-09-04T05:14:42.634Z,14.7
2022-09-04T05:19:47.154Z,14.6
2022-09-04T05:24:55.681Z,14.6
2022-09-04T05:29:55.229Z,14.6
2022-09-04T05:34:59.774Z,14.7
2022-09-04T05:40:04.510Z,14.6
2022-09-04T05:45:08.836Z,14.7
2022-09-04T05:50:12.372Z,14.9
2022-09-04T05:55:16.906Z,15.1
2022-09-04T06:00:21.432Z,15.1
2022-09-04T06:05:24.999Z,15.2
2022-09-04T06:10:29.550Z,15.1
2022-09-04T06:15:34.065Z,15
2022-09-04T06:20:37.621Z,14.9
2022-09-04T06:25:42.157Z,14.9
2022-09-04T06:30:46.732Z,14.9
2022-09-04T06:35:50.210Z,15.1
2022-09-04T06:40:54.747Z,15.4
2022-09-04T06:46:02.313Z,15.8
2022-09-04T06:51:03.857Z,16.1
2022-09-04T06:56:07.354Z,16.5
2022-09-04T07:01:11.997Z,16.7
2022-09-04T07:06:16.421Z,17.1
2022-09-04T07:11:20.185Z,17.3
2022-09-04T07:16:24.515Z,17.3
2022-09-04T07:21:30.484Z,17.7
2022-09-04T07:26:32.648Z,17.9
2022-09-04T07:31:37.168Z,18.4
2022-09-04T07:36:41.677Z,18.9
2022-09-04T07:41:45.237Z,18.8
2022-09-04T07:46:49.744Z,19.1
2022-09-04T07:51:53.338Z,19.6
2022-09-04T07:56:57.857Z,19.9
2022-09-04T08:02:02.503Z,20.1
2022-09-04T08:07:10.762Z,20.4
2022-09-04T08:12:10.450Z,21.1
2022-09-04T08:17:15.010Z,21.1
2022-09-04T08:22:18.535Z,21
2022-09-04T08:27:23.081Z,22.1
2022-09-04T08:32:28.552Z,21.6
2022-09-04T08:37:32.187Z,22
2022-09-04T08:42:35.722Z,21.4
2022-09-04T08:47:40.355Z,21.9
2022-09-04T08:52:44.783Z,21.6
2022-09-04T08:57:48.340Z,22.1
2022-09-04T09:02:52.965Z,22.3
2022-09-04T09:07:57.427Z,23.5
2022-09-04T09:13:00.975Z,22.4
2022-09-04T09:18:05.563Z,23.6
2022-09-04T09:23:11.328Z,23.6
2022-09-04T09:28:13.619Z,24
2022-09-04T09:33:18.192Z,23.4
2022-09-04T09:38:22.682Z,23.3
2022-09-04T09:43:27.211Z,23.4
2022-09-04T09:48:30.740Z,23.2
2022-09-04T09:53:35.436Z,23.5
2022-09-04T09:58:39.829Z,23.8
2022-09-04T10:03:43.385Z,23.6
2022-09-04T10:08:47.909Z,24.2
2022-09-04T10:13:52.482Z,23.7
2022-09-04T10:18:55.989Z,24.3
2022-09-04T10:24:00.566Z,25.1
2022-09-04T10:29:05.082Z,25.4
2022-09-04T10:34:08.638Z,25.5
2022-09-04T10:39:13.161Z,26
2022-09-04T10:44:17.673Z,25.2
2022-09-04T10:49:22.228Z,26.1
2022-09-04T10:54:25.814Z,26.7
2022-09-04T10:59:30.338Z,26.5
2022-09-04T11:04:34.846Z,28.9
2022-09-04T11:09:38.424Z,27.2
2022-09-04T11:14:42.980Z,26.8
2022-09-04T11:19:47.480Z,26.9
2022-09-04T11:24:51.039Z,26.6
2022-09-04T11:29:55.624Z,25.2
2022-09-04T11:35:00.167Z,25.6
2022-09-04T11:40:03.809Z,26.3
2022-09-04T11:45:08.229Z,28.7
2022-09-04T11:50:12.792Z,28.6
2022-09-04T11:55:17.394Z,28.3
2022-09-04T12:00:20.860Z,30.2
2022-09-04T12:05:24.423Z,26.3
2022-09-04T12:10:28.974Z,25.9
2022-09-04T12:15:33.548Z,25.6
2022-09-04T12:20:37.069Z,25.6
2022-09-04T12:25:41.592Z,25.5
2022-09-04T12:30:46.158Z,25.5
2022-09-04T12:35:50.695Z,26
2022-09-04T12:40:54.202Z,25.9
2022-09-04T12:45:58.797Z,26.1
2022-09-04T12:51:03.286Z,26.6
2022-09-04T12:56:06.849Z,28
2022-09-04T13:01:11.492Z,27.7
2022-09-04T13:06:15.900Z,29.4
2022-09-04T13:11:19.450Z,29.9
2022-09-04T13:16:24.076Z,30
2022-09-04T13:21:28.548Z,30.3
2022-09-04T13:26:32.064Z,31.3
2022-09-04T13:31:36.671Z,29.5
2022-09-04T13:36:41.194Z,30.4
2022-09-04T13:41:45.700Z,29.2
2022-09-04T13:46:49.315Z,27.7
2022-09-04T13:51:53.832Z,29.9
2022-09-04T13:56:58.327Z,28.9
2022-09-04T14:02:01.952Z,26.5
2022-09-04T14:07:06.435Z,26.6
2022-09-04T14:12:10.981Z,27.6
2022-09-04T14:17:14.561Z,26.7
2022-09-04T14:22:19.073Z,27.4
2022-09-04T14:27:23.607Z,28.1
2022-09-04T14:32:27.142Z,28
2022-09-04T14:37:31.691Z,28.5
2022-09-04T14:42:36.271Z,28.4
2022-09-04T14:47:40.747Z,30.2
2022-09-04T14:52:44.585Z,31
2022-09-04T14:57:48.856Z,29.9
2022-09-04T15:02:53.416Z,31.1
2022-09-04T15:07:56.958Z,30.7
2022-09-04T15:13:01.491Z,29.5
2022-09-04T15:18:09.964Z,27.9
2022-09-04T15:23:09.562Z,27.2
2022-09-04T15:28:14.089Z,27.1
2022-09-04T15:33:18.756Z,28.5
2022-09-04T15:38:22.245Z,28.9
2022-09-04T15:43:26.738Z,28.3
2022-09-04T15:48:31.240Z,28.6
2022-09-04T15:53:35.810Z,28
2022-09-04T15:58:39.349Z,28.6
2022-09-04T16:03:43.890Z,27.8
2022-09-04T16:08:48.448Z,28
2022-09-04T16:13:51.977Z,28.1
2022-09-04T16:18:55.548Z,28
2022-09-04T16:24:00.111Z,28.3
2022-09-04T16:29:04.643Z,28.6
2022-09-04T16:34:09.140Z,28
2022-09-04T16:39:12.673Z,27
2022-09-04T16:44:23.857Z,26.9
2022-09-04T16:49:21.739Z,27.7
2022-09-04T16:54:28.906Z,27.4
2022-09-04T16:59:29.859Z,27
2022-09-04T17:04:36.930Z,27.1
2022-09-04T17:09:37.931Z,26.9
2022-09-04T17:14:42.465Z,26.8
2022-09-04T17:19:47.039Z,26.5
2022-09-04T17:29:07.715Z,26.1
2022-09-04T17:29:55.707Z,26.1
2022-09-04T17:40:41.465Z,26
2022-09-04T17:40:56.291Z,25.9
2022-09-04T17:45:07.707Z,25.7
2022-09-04T17:50:12.227Z,25.5
2022-09-04T17:55:16.754Z,25.5
2022-09-04T18:00:20.325Z,25.2
2022-09-04T18:05:24.902Z,25
2022-09-04T18:10:29.372Z,25
2022-09-04T18:15:34.936Z,24.8
2022-09-04T18:20:37.472Z,24.7
2022-09-04T18:25:41.998Z,24.6
2022-09-04T18:37:05.941Z,24.4
2022-09-04T18:37:23.604Z,24.4
2022-09-04T18:46:28.752Z,24.4
2022-09-04T18:50:36.088Z,24.3
2022-09-04T18:51:18.256Z,24.2
2022-09-04T18:56:20.161Z,24
2022-09-04T19:01:11.930Z,23.8
2022-09-04T19:06:15.435Z,23.7
2022-09-04T19:11:21.210Z,23.5
2022-09-04T19:16:24.528Z,23.5
2022-09-04T19:21:28.052Z,23.5
2022-09-04T19:26:32.537Z,23.5
2022-09-04T19:31:37.145Z,23.3
2022-09-04T19:36:40.617Z,23
2022-09-04T19:46:05.353Z,22.8
2022-09-04T19:46:50.289Z,22.6
2022-09-04T19:53:30.441Z,22.6
2022-09-04T19:57:33.014Z,22.6
2022-09-04T20:02:03.174Z,22.6
2022-09-04T20:07:06.875Z,22.5
2022-09-04T20:12:10.391Z,22.5
2022-09-04T20:17:14.945Z,22.5
2022-09-04T20:22:19.465Z,22.4
2022-09-04T20:27:23.031Z,22.4
2022-09-04T20:32:27.703Z,22.4
2022-09-04T20:37:31.091Z,22.4
2022-09-04T20:42:35.632Z,22.2
2022-09-04T20:52:41.352Z,22.2
2022-09-04T21:03:05.648Z,22.1
2022-09-04T21:03:20.723Z,21.9
2022-09-04T21:07:56.339Z,21.7
2022-09-04T21:13:14.270Z,21.6
2022-09-04T21:18:05.488Z,21.5
2022-09-04T21:23:08.963Z,21.5
2022-09-04T21:28:13.495Z,21.5
2022-09-04T21:33:27.594Z,21.4
2022-09-04T21:38:22.531Z,21.3
2022-09-04T21:43:36.001Z,21.2
2022-09-04T21:48:30.659Z,21.2
2022-09-04T21:53:35.190Z,21.2
2022-09-04T22:02:27.351Z,21.2
2022-09-04T22:03:43.431Z,21.1
2022-09-04T22:13:26.467Z,21
2022-09-04T22:13:51.461Z,20.8
2022-09-04T22:18:55.866Z,20.7
2022-09-04T22:24:00.378Z,20.7
2022-09-04T22:29:04.181Z,20.7
2022-09-04T22:34:16.091Z,20.7
2022-09-04T22:39:13.035Z,20.6
2022-09-04T22:44:17.541Z,20.5
2022-09-04T22:49:21.101Z,20.5
2022-09-04T22:54:25.666Z,20.4
2022-09-04T22:59:30.168Z,20.2
2022-09-04T23:04:33.749Z,20.1
2022-09-04T23:13:52.295Z,20
2022-09-04T23:14:42.802Z,20
2022-09-04T23:26:34.413Z,19.9
2022-09-04T23:26:35.287Z,19.9
2022-09-04T23:29:55.764Z,19.9
2022-09-04T23:35:13.937Z,19.8
2022-09-04T23:40:03.624Z,19.7
2022-09-04T23:45:08.005Z,19.7
2022-09-04T23:50:12.546Z,19.7
2022-09-04T23:55:16.153Z,19.7
